Latest Coastal Weather Observations for Cape Wessel

IDD60701

Issued at 7:11 pm CST Wednesday 27 July 2016 (issued every 10 minutes, with the page automatically refreshed every 10 minutes)

About coastal observations | Map of coastal stations | Coastal observations for NT | Marine services | Other Formats
Station Details ID: 200786 Name: CAPE WESSEL Lat: -11.00 Lon: 136.76 Height: 18.0 m
Data from the previous 72 hours. | See also: Recent months at Cape Wessel
Date/Time
CST
Temp
°C
Wind Pressure Rain since
9am
mm
Weather Cloud Vis
km
Sea
Height
m
Swell
Dir  Spd
kts
Gust
kts
hPa Trend Height
m
Period
s
Dir
27/07:00pm 25.6 SSE 22 28 1012.8 - 0.0 - - - - - - -
27/06:30pm 25.8 SE 24 28 1012.5 - 0.0 - - - - - - -
27/06:00pm 25.9 SE 25 30 1012.4 - 0.0 - - - - - - -
27/05:30pm 26.5 SE 25 33 1012.0 - 0.0 - - - - - - -
27/05:00pm 26.9 SE 27 34 1011.6 - 0.0 - - - - - - -
27/04:30pm 27.3 SE 25 31 1011.5 - 0.0 - - - - - - -
27/04:00pm 28.1 SE 25 31 1011.5 - 0.0 - - - - - - -
27/03:30pm 28.2 SE 25 32 1011.6 - 0.0 - - - - - - -
27/03:00pm 28.6 SE 25 31 1011.6 - 0.0 - - - - - - -
27/02:30pm 28.8 SE 24 30 1011.8 - 0.0 - - - - - - -
27/02:00pm 29.4 SE 24 29 1012.3 - 0.0 - - - - - - -
27/01:30pm 29.3 SE 24 30 1012.6 - 0.0 - - - - - - -
27/01:00pm 28.0 SE 21 28 1012.9 - 0.0 - - - - - - -
27/12:30pm 30.5 SE 21 27 1013.1 - 0.0 - - - - - - -
27/12:00pm 30.2 SE 20 25 1013.5 - 0.0 - - - - - - -
27/11:30am 29.6 SE 20 24 1013.6 - 0.0 - - - - - - -
27/11:00am 29.6 SE 19 24 1014.0 - 0.0 - - - - - - -
27/10:30am 29.2 SE 20 24 1014.2 - 0.0 - - - - - - -
27/10:00am 29.6 SE 19 23 1014.3 - 0.0 - - - - - - -
27/09:30am 28.4 SE 19 23 1014.3 - 0.0 - - - - - - -
27/09:00am 27.7 SE 19 25 1014.2 - 0.0 - - - - - - -
27/08:30am 26.9 SE 19 25 1014.0 - 0.0 - - - - - - -
27/08:00am 26.5 SE 21 26 1013.6 - 0.0 - - - - - - -
27/07:30am 26.2 SE 19 24 1013.1 - 0.0 - - - - - - -
27/07:00am 25.6 SE 19 23 1012.7 - 0.0 - - - - - - -
27/06:30am 25.5 SE 18 22 1012.6 - 0.0 - - - - - - -
27/06:00am 25.4 SSE 18 22 1012.3 - 0.0 - - - - - - -
27/05:30am 25.4 SSE 17 20 1012.1 - 0.0 - - - - - - -
27/05:00am 25.2 SSE 16 19 1011.9 - 0.0 - - - - - - -
27/04:30am 25.2 SSE 16 21 1011.7 - 0.0 - - - - - - -
27/04:00am 25.3 SSE 16 19 1011.7 - 0.0 - - - - - - -
27/03:30am 25.2 SSE 16 19 1011.7 - 0.0 - - - - - - -
27/03:00am 25.4 SSE 17 20 1011.7 - 0.0 - - - - - - -
27/02:30am 25.2 SSE 17 21 1011.8 - 0.0 - - - - - - -
27/02:00am 25.2 SSE 17 21 1012.2 - 0.0 - - - - - - -
27/01:30am 25.3 SSE 18 22 1012.4 - 0.0 - - - - - - -
27/01:00am 25.3 SSE 17 21 1012.6 - 0.0 - - - - - - -
27/12:30am 25.5 SE 18 22 1012.9 - 0.0 - - - - - - -
27/12:00am 25.5 SE 19 23 1012.9 - 0.0 - - - - - - -
 
Date/Time
CST
Temp
°C
Wind Pressure Rain since
9am
mm
Weather Cloud Vis
km
Sea
Height
m
Swell
Dir  Spd
kts
Gust
kts
hPa Trend Height
m
Period
s
Dir
26/11:30pm 25.6 SE 20 24 1013.0 - 0.0 - - - - - - -
26/11:00pm 25.7 SE 19 23 1013.1 - 0.0 - - - - - - -
26/10:30pm 25.8 SE 19 22 1013.1 - 0.0 - - - - - - -
26/10:00pm 25.6 SE 19 24 1013.0 - 0.0 - - - - - - -
26/09:30pm 25.7 SE 18 22 1012.9 - 0.0 - - - - - - -
26/09:00pm 25.6 SE 17 21 1012.7 - 0.0 - - - - - - -
26/08:30pm 25.6 SE 16 20 1012.4 - 0.0 - - - - - - -
26/08:00pm 25.7 SE 17 21 1012.0 - 0.0 - - - - - - -
26/07:30pm 25.6 SE 17 21 1011.8 - 0.0 - - - - - - -
26/07:00pm 25.8 SE 16 20 1011.5 - 0.0 - - - - - - -
26/06:30pm 25.9 SE 17 21 1011.0 - 0.0 - - - - - - -
26/06:00pm 26.2 SE 17 21 1010.7 - 0.0 - - - - - - -
26/05:30pm 26.9 SE 17 22 1010.7 - 0.0 - - - - - - -
26/05:00pm 27.7 SE 15 19 1010.6 - 0.0 - - - - - - -
26/04:30pm 28.6 SE 14 18 1010.6 - 0.0 - - - - - - -
26/04:00pm 28.9 SE 15 18 1010.7 - 0.0 - - - - - - -
26/03:30pm 29.4 SE 16 20 1010.8 - 0.0 - - - - - - -
26/03:00pm 29.6 SE 16 19 1010.9 - 0.0 - - - - - - -
26/02:30pm 30.2 ESE 17 21 1011.3 - 0.0 - - - - - - -
26/02:00pm 30.1 ESE 17 21 1011.5 - 0.0 - - - - - - -
26/01:30pm 29.9 SE 17 21 1011.6 - 0.0 - - - - - - -
26/01:00pm 30.3 SE 17 21 1011.9 - 0.0 - - - - - - -
26/12:30pm 30.5 ESE 17 21 1012.2 - 0.0 - - - - - - -
26/12:00pm 30.6 ESE 15 19 1012.6 - 0.0 - - - - - - -
26/11:30am 29.1 ESE 16 21 1012.9 - 0.0 - - - - - - -
26/11:00am 29.9 ESE 18 22 1013.0 - 0.0 - - - - - - -
26/10:30am 29.0 SE 17 22 1013.2 - 0.0 - - - - - - -
26/10:00am 28.2 SE 19 24 1013.2 - 0.0 - - - - - - -
26/09:30am 28.7 SE 17 23 1013.2 - 0.0 - - - - - - -
26/09:00am 28.3 SE 18 22 1013.3 - 0.0 - - - - - - -
26/08:30am 27.5 SE 17 23 1013.0 - 0.0 - - - - - - -
26/08:00am 26.8 SE 18 22 1012.7 - 0.0 - - - - - - -
26/07:30am 26.2 SE 17 21 1012.5 - 0.0 - - - - - - -
26/07:00am 25.6 SE 16 19 1012.2 - 0.0 - - - - - - -
26/06:30am 25.2 SE 17 21 1012.0 - 0.0 - - - - - - -
26/06:00am 25.4 SE 17 21 1011.8 - 0.0 - - - - - - -
26/05:30am 25.4 SE 17 22 1011.6 - 0.0 - - - - - - -
26/05:00am 25.3 SE 18 21 1011.4 - 0.0 - - - - - - -
26/04:30am 25.3 SE 16 21 1011.4 - 0.0 - - - - - - -
26/04:00am 25.3 SE 17 20 1011.5 - 0.0 - - - - - - -
26/03:30am 25.2 SE 16 20 1011.4 - 0.0 - - - - - - -
26/03:00am 25.3 SE 15 19 1011.5 - 0.0 - - - - - - -
26/02:30am 25.3 SE 15 18 1011.6 - 0.0 - - - - - - -
26/02:00am 25.3 SE 15 19 1011.8 - 0.0 - - - - - - -
26/01:30am 25.5 SE 16 19 1012.0 - 0.0 - - - - - - -
26/01:00am 25.4 SE 15 19 1012.1 - 0.0 - - - - - - -
26/12:30am 25.5 SE 15 19 1012.3 - 0.0 - - - - - - -
26/12:00am 25.6 SE 17 21 1012.4 - 0.0 - - - - - - -
 
Date/Time
CST
Temp
°C
Wind Pressure Rain since
9am
mm
Weather Cloud Vis
km
Sea
Height
m
Swell
Dir  Spd
kts
Gust
kts
hPa Trend Height
m
Period
s
Dir
25/11:30pm 25.7 SE 17 20 1012.5 - 0.0 - - - - - - -
25/11:00pm 25.9 SE 18 22 1012.6 - 0.0 - - - - - - -
25/10:30pm 25.7 SE 17 20 1012.5 - 0.0 - - - - - - -
25/10:00pm 25.9 SE 19 22 1012.5 - 0.0 - - - - - - -
25/09:30pm 25.8 SE 18 22 1012.3 - 0.0 - - - - - - -
25/09:00pm 25.8 SE 17 21 1012.1 - 0.0 - - - - - - -
25/08:30pm 25.6 SE 16 19 1012.0 - 0.0 - - - - - - -
25/08:00pm 25.7 SE 15 19 1011.6 - 0.0 - - - - - - -
25/07:30pm 26.0 SE 17 21 1011.4 - 0.0 - - - - - - -
25/07:00pm 25.7 SE 16 20 1011.0 - 0.0 - - - - - - -
25/06:30pm 26.1 SE 17 20 1010.6 - 0.0 - - - - - - -
25/06:00pm 26.4 SE 16 20 1010.4 - 0.0 - - - - - - -
25/05:30pm 27.0 SE 16 20 1010.2 - 0.0 - - - - - - -
25/05:00pm 27.8 SE 15 18 1010.2 - 0.0 - - - - - - -
25/04:30pm 28.6 SE 15 18 1010.1 - 0.0 - - - - - - -
25/04:00pm 29.1 SE 14 17 1010.2 - 0.0 - - - - - - -
25/03:30pm 29.6 SE 14 17 1010.5 - 0.0 - - - - - - -
25/03:00pm 29.9 SE 15 18 1010.7 - 0.0 - - - - - - -
25/02:30pm 30.1 SE 17 20 1010.8 - 0.0 - - - - - - -
25/02:00pm 30.4 SE 18 21 1011.0 - 0.0 - - - - - - -
25/01:30pm 30.3 SE 17 20 1011.5 - 0.0 - - - - - - -
25/01:00pm 30.7 SE 17 20 1011.8 - 0.0 - - - - - - -
25/12:30pm 30.1 SE 17 19 1012.2 - 0.0 - - - - - - -
25/12:00pm 29.9 SE 16 20 1012.6 - 0.0 - - - - - - -
25/11:30am 30.3 ESE 16 19 1012.9 - 0.0 - - - - - - -
25/11:00am 29.8 SE 17 21 1013.1 - 0.0 - - - - - - -
25/10:30am 29.6 ESE 16 19 1013.1 - 0.0 - - - - - - -
25/10:00am 29.0 ESE 16 19 1013.2 - 0.0 - - - - - - -
25/09:30am 28.6 ESE 16 19 1013.0 - 0.0 - - - - - - -
25/09:00am 28.2 ESE 16 19 1012.8 - 0.0 - - - - - - -
25/08:30am 27.2 ESE 16 19 1012.6 - 0.0 - - - - - - -
25/08:00am 26.7 ESE 16 19 1012.4 - 0.0 - - - - - - -
25/07:30am 26.5 ESE 14 16 1012.2 - 0.0 - - - - - - -
25/07:00am 25.2 ESE 14 17 1012.0 - 0.0 - - - - - - -
25/06:30am 25.3 ESE 13 15 1011.9 - 0.0 - - - - - - -
25/06:00am 25.1 ESE 12 14 1011.8 - 0.0 - - - - - - -
25/05:30am 25.1 SE 12 15 1011.4 - 0.0 - - - - - - -
25/05:00am 25.3 SE 12 15 1011.4 - 0.0 - - - - - - -
25/04:30am 25.0 SE 13 15 1011.1 - 0.0 - - - - - - -
25/04:00am 25.1 SE 13 15 1010.9 - 0.0 - - - - - - -
25/03:30am 25.1 SE 13 16 1011.1 - 0.0 - - - - - - -
25/03:00am 25.1 SE 13 16 1011.1 - 0.0 - - - - - - -
25/02:30am 25.1 SE 13 16 1011.3 - 0.0 - - - - - - -
25/02:00am 25.2 SE 14 17 1011.6 - 0.0 - - - - - - -
25/01:30am 25.3 SE 13 15 1011.9 - 0.0 - - - - - - -
25/01:00am 25.7 SE 13 16 1012.1 - 0.0 - - - - - - -
25/12:30am 25.6 SE 14 17 1012.2 - 0.0 - - - - - - -
25/12:00am 25.6 SE 14 17 1012.2 - 0.0 - - - - - - -
 
Date/Time
CST
Temp
°C
Wind Pressure Rain since
9am
mm
Weather Cloud Vis
km
Sea
Height
m
Swell
Dir  Spd
kts
Gust
kts
hPa Trend Height
m
Period
s
Dir
24/11:30pm 25.7 SE 15 17 1012.5 - 0.0 - - - - - - -
24/11:00pm 25.8 SE 15 17 1012.7 - 0.0 - - - - - - -
24/10:30pm 25.9 SE 14 18 1012.7 - 0.0 - - - - - - -
24/10:00pm 25.9 SE 16 19 1012.7 - 0.0 - - - - - - -
24/09:30pm 26.0 SE 16 19 1012.5 - 0.0 - - - - - - -
24/09:00pm 25.8 SE 15 18 1012.4 - 0.0 - - - - - - -
24/08:30pm 26.0 SE 15 18 1012.3 - 0.0 - - - - - - -
24/08:00pm 26.0 SE 14 16 1012.1 - 0.0 - - - - - - -
24/07:30pm 25.8 ESE 13 15 1011.8 - 0.0 - - - - - - -

Other Formats:

Comma delimited format used in spreadsheet applications
http://www.bom.gov.au/fwo/IDD60701/IDD60701.94147.axf

JavaScript Object Notation format (JSON) in row-major order
http://www.bom.gov.au/fwo/IDD60701/IDD60701.94147.json